sensor_id;sensor_type;location;lat;lon;timestamp;P1;durP1;ratioP1;P2;durP2;ratioP2
55224;SDS011;41091;49.400;8.684;2023-11-19T00:00:21;9.10;;;2.78;;
55224;SDS011;41091;49.400;8.684;2023-11-19T00:02:48;2.25;;;1.98;;
55224;SDS011;41091;49.400;8.684;2023-11-19T00:05:14;7.57;;;2.03;;
55224;SDS011;41091;49.400;8.684;2023-11-19T00:07:39;1.70;;;1.60;;
55224;SDS011;41091;49.400;8.684;2023-11-19T00:10:11;2.15;;;1.38;;
55224;SDS011;41091;49.400;8.684;2023-11-19T00:12:41;1.20;;;1.20;;
55224;SDS011;41091;49.400;8.684;2023-11-19T00:15:08;1.73;;;1.38;;
55224;SDS011;41091;49.400;8.684;2023-11-19T00:17:39;1.67;;;1.58;;
55224;SDS011;41091;49.400;8.684;2023-11-19T00:20:11;1.73;;;1.45;;
55224;SDS011;41091;49.400;8.684;2023-11-19T00:22:40;6.45;;;3.40;;
55224;SDS011;41091;49.400;8.684;2023-11-19T00:25:06;1.90;;;1.80;;
55224;SDS011;41091;49.400;8.684;2023-11-19T00:27:32;1.27;;;1.27;;
55224;SDS011;41091;49.400;8.684;2023-11-19T00:29:57;1.45;;;1.38;;
55224;SDS011;41091;49.400;8.684;2023-11-19T00:32:23;1.90;;;1.20;;
55224;SDS011;41091;49.400;8.684;2023-11-19T00:34:48;2.85;;;1.20;;
55224;SDS011;41091;49.400;8.684;2023-11-19T00:37:14;2.08;;;1.10;;
55224;SDS011;41091;49.400;8.684;2023-11-19T00:39:40;1.05;;;0.95;;
55224;SDS011;41091;49.400;8.684;2023-11-19T00:42:06;5.18;;;3.08;;
55224;SDS011;41091;49.400;8.684;2023-11-19T00:44:31;1.00;;;0.65;;
55224;SDS011;41091;49.400;8.684;2023-11-19T00:46:59;2.08;;;1.40;;
55224;SDS011;41091;49.400;8.684;2023-11-19T00:49:27;0.80;;;0.80;;
55224;SDS011;41091;49.400;8.684;2023-11-19T00:51:54;0.55;;;0.55;;
55224;SDS011;41091;49.400;8.684;2023-11-19T00:54:22;0.70;;;0.70;;
55224;SDS011;41091;49.400;8.684;2023-11-19T00:56:51;0.95;;;0.60;;
55224;SDS011;41091;49.400;8.684;2023-11-19T00:59:17;2.13;;;0.73;;
55224;SDS011;41091;49.400;8.684;2023-11-19T01:01:47;0.70;;;0.70;;
55224;SDS011;41091;49.400;8.684;2023-11-19T01:04:16;0.40;;;0.40;;
55224;SDS011;41091;49.400;8.684;2023-11-19T01:06:41;1.15;;;0.40;;
55224;SDS011;41091;49.400;8.684;2023-11-19T01:09:07;0.52;;;0.52;;
55224;SDS011;41091;49.400;8.684;2023-11-19T01:11:35;3.03;;;0.80;;
55224;SDS011;41091;49.400;8.684;2023-11-19T01:14:04;0.73;;;0.70;;
55224;SDS011;41091;49.400;8.684;2023-11-19T01:16:29;0.50;;;0.50;;
55224;SDS011;41091;49.400;8.684;2023-11-19T01:18:55;0.45;;;0.45;;
55224;SDS011;41091;49.400;8.684;2023-11-19T01:21:21;0.50;;;0.50;;
55224;SDS011;41091;49.400;8.684;2023-11-19T01:23:49;1.08;;;0.60;;
55224;SDS011;41091;49.400;8.684;2023-11-19T01:26:14;0.73;;;0.60;;
55224;SDS011;41091;49.400;8.684;2023-11-19T01:28:39;0.57;;;0.47;;
55224;SDS011;41091;49.400;8.684;2023-11-19T01:31:08;0.40;;;0.40;;
55224;SDS011;41091;49.400;8.684;2023-11-19T01:33:33;0.30;;;0.30;;
55224;SDS011;41091;49.400;8.684;2023-11-19T01:36:01;0.40;;;0.40;;
55224;SDS011;41091;49.400;8.684;2023-11-19T01:38:26;0.47;;;0.47;;
55224;SDS011;41091;49.400;8.684;2023-11-19T01:40:55;0.57;;;0.57;;
55224;SDS011;41091;49.400;8.684;2023-11-19T01:43:34;0.40;;;0.40;;
55224;SDS011;41091;49.400;8.684;2023-11-19T01:46:04;1.35;;;0.32;;
55224;SDS011;41091;49.400;8.684;2023-11-19T01:48:30;0.38;;;0.38;;
55224;SDS011;41091;49.400;8.684;2023-11-19T01:50:57;0.40;;;0.40;;
55224;SDS011;41091;49.400;8.684;2023-11-19T01:53:23;0.30;;;0.30;;
55224;SDS011;41091;49.400;8.684;2023-11-19T01:55:49;1.58;;;0.40;;
55224;SDS011;41091;49.400;8.684;2023-11-19T01:58:14;1.52;;;0.40;;
55224;SDS011;41091;49.400;8.684;2023-11-19T02:00:40;0.60;;;0.60;;
55224;SDS011;41091;49.400;8.684;2023-11-19T02:03:06;0.38;;;0.38;;
55224;SDS011;41091;49.400;8.684;2023-11-19T02:05:33;0.40;;;0.40;;
55224;SDS011;41091;49.400;8.684;2023-11-19T02:07:59;0.50;;;0.50;;
55224;SDS011;41091;49.400;8.684;2023-11-19T02:10:24;0.40;;;0.40;;
55224;SDS011;41091;49.400;8.684;2023-11-19T02:15:20;0.68;;;0.50;;
55224;SDS011;41091;49.400;8.684;2023-11-19T02:17:46;0.50;;;0.50;;
55224;SDS011;41091;49.400;8.684;2023-11-19T02:20:14;0.82;;;0.82;;
55224;SDS011;41091;49.400;8.684;2023-11-19T02:22:40;1.88;;;0.77;;
55224;SDS011;41091;49.400;8.684;2023-11-19T02:25:11;0.90;;;0.90;;
55224;SDS011;41091;49.400;8.684;2023-11-19T02:27:51;0.80;;;0.80;;
55224;SDS011;41091;49.400;8.684;2023-11-19T02:30:20;1.00;;;1.00;;
55224;SDS011;41091;49.400;8.684;2023-11-19T02:32:54;0.80;;;0.80;;
55224;SDS011;41091;49.400;8.684;2023-11-19T02:35:27;0.93;;;0.60;;
55224;SDS011;41091;49.400;8.684;2023-11-19T02:37:56;0.85;;;0.85;;
55224;SDS011;41091;49.400;8.684;2023-11-19T02:40:25;0.52;;;0.52;;
55224;SDS011;41091;49.400;8.684;2023-11-19T02:42:50;0.60;;;0.60;;
55224;SDS011;41091;49.400;8.684;2023-11-19T02:45:20;0.43;;;0.43;;
55224;SDS011;41091;49.400;8.684;2023-11-19T02:47:49;0.50;;;0.50;;
55224;SDS011;41091;49.400;8.684;2023-11-19T02:50:14;5.47;;;0.70;;
55224;SDS011;41091;49.400;8.684;2023-11-19T02:52:43;1.00;;;0.80;;
55224;SDS011;41091;49.400;8.684;2023-11-19T02:55:10;1.27;;;0.77;;
55224;SDS011;41091;49.400;8.684;2023-11-19T02:57:40;0.55;;;0.55;;
55224;SDS011;41091;49.400;8.684;2023-11-19T03:00:17;0.70;;;0.70;;
55224;SDS011;41091;49.400;8.684;2023-11-19T03:02:43;0.55;;;0.55;;
55224;SDS011;41091;49.400;8.684;2023-11-19T03:05:12;0.70;;;0.70;;
55224;SDS011;41091;49.400;8.684;2023-11-19T03:07:40;0.52;;;0.52;;
55224;SDS011;41091;49.400;8.684;2023-11-19T03:10:07;0.70;;;0.70;;
55224;SDS011;41091;49.400;8.684;2023-11-19T03:12:36;0.80;;;0.80;;
55224;SDS011;41091;49.400;8.684;2023-11-19T03:15:01;0.73;;;0.73;;
55224;SDS011;41091;49.400;8.684;2023-11-19T03:17:27;0.80;;;0.80;;
55224;SDS011;41091;49.400;8.684;2023-11-19T03:19:55;0.75;;;0.70;;
55224;SDS011;41091;49.400;8.684;2023-11-19T03:22:20;0.75;;;0.75;;
55224;SDS011;41091;49.400;8.684;2023-11-19T03:24:45;0.70;;;0.70;;
55224;SDS011;41091;49.400;8.684;2023-11-19T03:27:13;0.73;;;0.73;;
55224;SDS011;41091;49.400;8.684;2023-11-19T03:29:38;1.10;;;1.00;;
55224;SDS011;41091;49.400;8.684;2023-11-19T03:32:04;2.40;;;0.77;;
55224;SDS011;41091;49.400;8.684;2023-11-19T03:34:29;0.70;;;0.70;;
55224;SDS011;41091;49.400;8.684;2023-11-19T03:36:55;0.57;;;0.57;;
55224;SDS011;41091;49.400;8.684;2023-11-19T03:39:21;1.15;;;0.85;;
55224;SDS011;41091;49.400;8.684;2023-11-19T03:41:52;0.70;;;0.70;;
55224;SDS011;41091;49.400;8.684;2023-11-19T03:44:17;0.90;;;0.90;;
55224;SDS011;41091;49.400;8.684;2023-11-19T03:46:44;2.38;;;0.80;;
55224;SDS011;41091;49.400;8.684;2023-11-19T03:49:09;0.70;;;0.70;;
55224;SDS011;41091;49.400;8.684;2023-11-19T03:51:34;0.80;;;0.80;;
55224;SDS011;41091;49.400;8.684;2023-11-19T03:54:00;1.15;;;1.10;;
55224;SDS011;41091;49.400;8.684;2023-11-19T03:56:30;3.42;;;1.02;;
55224;SDS011;41091;49.400;8.684;2023-11-19T03:58:56;1.55;;;1.02;;
55224;SDS011;41091;49.400;8.684;2023-11-19T04:01:21;0.95;;;0.95;;
55224;SDS011;41091;49.400;8.684;2023-11-19T04:03:46;0.80;;;0.80;;
55224;SDS011;41091;49.400;8.684;2023-11-19T04:06:12;0.98;;;0.98;;
55224;SDS011;41091;49.400;8.684;2023-11-19T04:08:42;1.02;;;1.02;;
55224;SDS011;41091;49.400;8.684;2023-11-19T04:11:07;1.00;;;1.00;;
55224;SDS011;41091;49.400;8.684;2023-11-19T04:13:34;0.90;;;0.90;;
55224;SDS011;41091;49.400;8.684;2023-11-19T04:16:02;1.05;;;0.90;;
55224;SDS011;41091;49.400;8.684;2023-11-19T04:18:28;0.85;;;0.85;;
55224;SDS011;41091;49.400;8.684;2023-11-19T04:20:53;1.17;;;1.08;;
55224;SDS011;41091;49.400;8.684;2023-11-19T04:23:18;1.55;;;0.85;;
55224;SDS011;41091;49.400;8.684;2023-11-19T04:25:44;1.17;;;0.68;;
55224;SDS011;41091;49.400;8.684;2023-11-19T04:28:09;1.35;;;1.02;;
55224;SDS011;41091;49.400;8.684;2023-11-19T04:30:37;0.93;;;0.88;;
55224;SDS011;41091;49.400;8.684;2023-11-19T04:33:05;1.83;;;0.93;;
55224;SDS011;41091;49.400;8.684;2023-11-19T04:35:30;0.88;;;0.88;;
55224;SDS011;41091;49.400;8.684;2023-11-19T04:37:58;1.10;;;1.00;;
55224;SDS011;41091;49.400;8.684;2023-11-19T04:40:26;0.98;;;0.98;;
55224;SDS011;41091;49.400;8.684;2023-11-19T04:42:51;3.67;;;0.70;;
55224;SDS011;41091;49.400;8.684;2023-11-19T04:45:17;0.60;;;0.60;;
55224;SDS011;41091;49.400;8.684;2023-11-19T04:47:45;1.38;;;0.73;;
55224;SDS011;41091;49.400;8.684;2023-11-19T04:50:10;1.17;;;1.08;;
55224;SDS011;41091;49.400;8.684;2023-11-19T04:52:38;0.98;;;0.98;;
55224;SDS011;41091;49.400;8.684;2023-11-19T04:55:05;0.80;;;0.80;;
55224;SDS011;41091;49.400;8.684;2023-11-19T04:57:31;2.30;;;0.90;;
55224;SDS011;41091;49.400;8.684;2023-11-19T04:59:58;1.00;;;1.00;;
55224;SDS011;41091;49.400;8.684;2023-11-19T05:02:24;0.95;;;0.95;;
55224;SDS011;41091;49.400;8.684;2023-11-19T05:04:54;1.23;;;1.23;;
55224;SDS011;41091;49.400;8.684;2023-11-19T05:07:19;2.00;;;1.10;;
55224;SDS011;41091;49.400;8.684;2023-11-19T05:09:45;1.58;;;1.30;;
55224;SDS011;41091;49.400;8.684;2023-11-19T05:12:10;1.85;;;1.23;;
55224;SDS011;41091;49.400;8.684;2023-11-19T05:14:37;0.90;;;0.90;;
55224;SDS011;41091;49.400;8.684;2023-11-19T05:17:03;1.30;;;1.20;;
55224;SDS011;41091;49.400;8.684;2023-11-19T05:19:28;1.15;;;1.05;;
55224;SDS011;41091;49.400;8.684;2023-11-19T05:21:53;2.15;;;1.60;;
55224;SDS011;41091;49.400;8.684;2023-11-19T05:24:19;2.83;;;1.25;;
55224;SDS011;41091;49.400;8.684;2023-11-19T05:26:44;2.65;;;1.10;;
55224;SDS011;41091;49.400;8.684;2023-11-19T05:29:09;2.15;;;1.80;;
55224;SDS011;41091;49.400;8.684;2023-11-19T05:31:37;1.42;;;1.42;;
55224;SDS011;41091;49.400;8.684;2023-11-19T05:34:03;1.13;;;1.13;;
55224;SDS011;41091;49.400;8.684;2023-11-19T05:36:28;2.15;;;1.23;;
55224;SDS011;41091;49.400;8.684;2023-11-19T05:38:54;3.05;;;1.42;;
55224;SDS011;41091;49.400;8.684;2023-11-19T05:41:22;2.05;;;1.13;;
55224;SDS011;41091;49.400;8.684;2023-11-19T05:43:49;1.15;;;1.15;;
55224;SDS011;41091;49.400;8.684;2023-11-19T05:46:15;1.20;;;1.20;;
55224;SDS011;41091;49.400;8.684;2023-11-19T05:48:41;1.05;;;1.05;;
55224;SDS011;41091;49.400;8.684;2023-11-19T05:51:11;0.80;;;0.80;;
55224;SDS011;41091;49.400;8.684;2023-11-19T05:53:37;1.67;;;1.30;;
55224;SDS011;41091;49.400;8.684;2023-11-19T05:56:02;2.05;;;1.30;;
55224;SDS011;41091;49.400;8.684;2023-11-19T05:58:29;4.22;;;1.70;;
55224;SDS011;41091;49.400;8.684;2023-11-19T06:00:55;1.00;;;1.00;;
55224;SDS011;41091;49.400;8.684;2023-11-19T06:03:20;4.40;;;1.17;;
55224;SDS011;41091;49.400;8.684;2023-11-19T06:05:47;2.90;;;1.35;;
55224;SDS011;41091;49.400;8.684;2023-11-19T06:08:12;1.25;;;1.15;;
55224;SDS011;41091;49.400;8.684;2023-11-19T06:10:41;1.27;;;1.25;;
55224;SDS011;41091;49.400;8.684;2023-11-19T06:13:07;1.98;;;1.20;;
55224;SDS011;41091;49.400;8.684;2023-11-19T06:15:35;7.22;;;1.25;;
55224;SDS011;41091;49.400;8.684;2023-11-19T06:18:00;1.88;;;1.10;;
55224;SDS011;41091;49.400;8.684;2023-11-19T06:20:28;1.45;;;1.35;;
55224;SDS011;41091;49.400;8.684;2023-11-19T06:22:55;7.10;;;1.45;;
55224;SDS011;41091;49.400;8.684;2023-11-19T06:25:20;1.08;;;0.95;;
55224;SDS011;41091;49.400;8.684;2023-11-19T06:27:46;1.00;;;1.00;;
55224;SDS011;41091;49.400;8.684;2023-11-19T06:30:11;1.08;;;1.00;;
55224;SDS011;41091;49.400;8.684;2023-11-19T06:32:41;0.82;;;0.82;;
55224;SDS011;41091;49.400;8.684;2023-11-19T06:35:09;0.70;;;0.70;;
55224;SDS011;41091;49.400;8.684;2023-11-19T06:37:35;1.10;;;1.00;;
55224;SDS011;41091;49.400;8.684;2023-11-19T06:40:01;0.70;;;0.60;;
55224;SDS011;41091;49.400;8.684;2023-11-19T06:42:29;0.57;;;0.57;;
55224;SDS011;41091;49.400;8.684;2023-11-19T06:44:55;0.70;;;0.70;;
55224;SDS011;41091;49.400;8.684;2023-11-19T06:47:22;0.80;;;0.80;;
55224;SDS011;41091;49.400;8.684;2023-11-19T06:49:47;0.68;;;0.68;;
55224;SDS011;41091;49.400;8.684;2023-11-19T06:52:17;5.38;;;1.08;;
55224;SDS011;41091;49.400;8.684;2023-11-19T06:54:45;1.10;;;1.00;;
55224;SDS011;41091;49.400;8.684;2023-11-19T06:57:10;1.58;;;0.70;;
55224;SDS011;41091;49.400;8.684;2023-11-19T06:59:36;1.08;;;0.80;;
55224;SDS011;41091;49.400;8.684;2023-11-19T07:02:02;1.58;;;0.73;;
55224;SDS011;41091;49.400;8.684;2023-11-19T07:04:27;0.85;;;0.85;;
55224;SDS011;41091;49.400;8.684;2023-11-19T07:06:52;0.77;;;0.65;;
55224;SDS011;41091;49.400;8.684;2023-11-19T07:09:18;3.28;;;1.48;;
55224;SDS011;41091;49.400;8.684;2023-11-19T07:11:43;1.80;;;0.77;;
55224;SDS011;41091;49.400;8.684;2023-11-19T07:14:10;0.77;;;0.77;;
55224;SDS011;41091;49.400;8.684;2023-11-19T07:16:36;0.70;;;0.70;;
55224;SDS011;41091;49.400;8.684;2023-11-19T07:19:04;0.73;;;0.70;;
55224;SDS011;41091;49.400;8.684;2023-11-19T07:21:30;0.63;;;0.63;;
55224;SDS011;41091;49.400;8.684;2023-11-19T07:23:58;0.82;;;0.75;;
55224;SDS011;41091;49.400;8.684;2023-11-19T07:26:24;1.27;;;0.60;;
55224;SDS011;41091;49.400;8.684;2023-11-19T07:28:52;3.85;;;0.60;;
55224;SDS011;41091;49.400;8.684;2023-11-19T07:31:17;0.77;;;0.77;;
55224;SDS011;41091;49.400;8.684;2023-11-19T07:33:44;0.60;;;0.50;;
55224;SDS011;41091;49.400;8.684;2023-11-19T07:36:11;2.50;;;0.65;;
55224;SDS011;41091;49.400;8.684;2023-11-19T07:38:39;0.55;;;0.55;;
55224;SDS011;41091;49.400;8.684;2023-11-19T07:41:05;0.57;;;0.52;;
55224;SDS011;41091;49.400;8.684;2023-11-19T07:43:32;0.95;;;0.77;;
55224;SDS011;41091;49.400;8.684;2023-11-19T07:45:57;0.60;;;0.60;;
55224;SDS011;41091;49.400;8.684;2023-11-19T07:48:25;2.63;;;0.63;;
55224;SDS011;41091;49.400;8.684;2023-11-19T07:50:55;1.63;;;0.70;;
55224;SDS011;41091;49.400;8.684;2023-11-19T07:53:22;0.75;;;0.73;;
55224;SDS011;41091;49.400;8.684;2023-11-19T07:55:48;0.50;;;0.50;;
55224;SDS011;41091;49.400;8.684;2023-11-19T07:58:13;1.08;;;0.80;;
55224;SDS011;41091;49.400;8.684;2023-11-19T08:00:38;0.50;;;0.50;;
55224;SDS011;41091;49.400;8.684;2023-11-19T08:03:05;1.52;;;0.60;;
55224;SDS011;41091;49.400;8.684;2023-11-19T08:05:30;0.70;;;0.70;;
55224;SDS011;41091;49.400;8.684;2023-11-19T08:07:56;1.08;;;0.50;;
55224;SDS011;41091;49.400;8.684;2023-11-19T08:10:24;0.45;;;0.45;;
55224;SDS011;41091;49.400;8.684;2023-11-19T08:12:49;7.07;;;1.00;;
55224;SDS011;41091;49.400;8.684;2023-11-19T08:15:14;0.60;;;0.60;;
55224;SDS011;41091;49.400;8.684;2023-11-19T08:17:40;0.50;;;0.50;;
55224;SDS011;41091;49.400;8.684;2023-11-19T08:20:06;0.60;;;0.60;;
55224;SDS011;41091;49.400;8.684;2023-11-19T08:22:35;0.75;;;0.75;;
55224;SDS011;41091;49.400;8.684;2023-11-19T08:25:06;0.68;;;0.68;;
55224;SDS011;41091;49.400;8.684;2023-11-19T08:27:31;1.85;;;1.00;;
55224;SDS011;41091;49.400;8.684;2023-11-19T08:29:57;0.50;;;0.50;;
55224;SDS011;41091;49.400;8.684;2023-11-19T08:32:25;0.63;;;0.63;;
55224;SDS011;41091;49.400;8.684;2023-11-19T08:34:51;4.68;;;0.63;;
55224;SDS011;41091;49.400;8.684;2023-11-19T08:37:19;0.85;;;0.65;;
55224;SDS011;41091;49.400;8.684;2023-11-19T08:39:51;1.48;;;0.55;;
55224;SDS011;41091;49.400;8.684;2023-11-19T08:42:21;0.40;;;0.40;;
55224;SDS011;41091;49.400;8.684;2023-11-19T08:44:50;0.70;;;0.70;;
55224;SDS011;41091;49.400;8.684;2023-11-19T08:47:16;0.65;;;0.50;;
55224;SDS011;41091;49.400;8.684;2023-11-19T08:49:44;0.50;;;0.50;;
55224;SDS011;41091;49.400;8.684;2023-11-19T08:52:10;1.13;;;0.52;;
55224;SDS011;41091;49.400;8.684;2023-11-19T08:54:36;1.58;;;0.75;;
55224;SDS011;41091;49.400;8.684;2023-11-19T08:57:02;2.38;;;1.25;;
55224;SDS011;41091;49.400;8.684;2023-11-19T08:59:28;0.98;;;0.90;;
55224;SDS011;41091;49.400;8.684;2023-11-19T09:01:54;0.57;;;0.57;;
55224;SDS011;41091;49.400;8.684;2023-11-19T09:04:19;4.20;;;0.60;;
55224;SDS011;41091;49.400;8.684;2023-11-19T09:06:47;2.50;;;0.80;;
55224;SDS011;41091;49.400;8.684;2023-11-19T09:09:15;2.72;;;0.70;;
55224;SDS011;41091;49.400;8.684;2023-11-19T09:11:42;0.70;;;0.70;;
55224;SDS011;41091;49.400;8.684;2023-11-19T09:14:08;0.60;;;0.60;;
55224;SDS011;41091;49.400;8.684;2023-11-19T09:16:35;0.47;;;0.47;;
55224;SDS011;41091;49.400;8.684;2023-11-19T09:19:01;1.75;;;0.73;;
55224;SDS011;41091;49.400;8.684;2023-11-19T09:21:27;1.38;;;0.85;;
55224;SDS011;41091;49.400;8.684;2023-11-19T09:23:54;1.58;;;1.00;;
55224;SDS011;41091;49.400;8.684;2023-11-19T09:26:20;1.52;;;1.05;;
55224;SDS011;41091;49.400;8.684;2023-11-19T09:28:48;1.48;;;0.43;;
55224;SDS011;41091;49.400;8.684;2023-11-19T09:31:16;1.70;;;0.68;;
55224;SDS011;41091;49.400;8.684;2023-11-19T09:33:42;0.73;;;0.73;;
55224;SDS011;41091;49.400;8.684;2023-11-19T09:36:08;0.65;;;0.52;;
55224;SDS011;41091;49.400;8.684;2023-11-19T09:38:34;3.42;;;0.85;;
55224;SDS011;41091;49.400;8.684;2023-11-19T09:41:03;2.85;;;1.00;;
55224;SDS011;41091;49.400;8.684;2023-11-19T09:43:35;1.75;;;0.70;;
55224;SDS011;41091;49.400;8.684;2023-11-19T09:46:07;2.63;;;0.70;;
55224;SDS011;41091;49.400;8.684;2023-11-19T09:48:36;0.45;;;0.43;;
55224;SDS011;41091;49.400;8.684;2023-11-19T09:51:03;6.18;;;0.80;;
55224;SDS011;41091;49.400;8.684;2023-11-19T09:53:32;1.23;;;0.70;;
55224;SDS011;41091;49.400;8.684;2023-11-19T09:55:59;23.30;;;1.15;;
55224;SDS011;41091;49.400;8.684;2023-11-19T09:58:31;2.25;;;0.90;;
55224;SDS011;41091;49.400;8.684;2023-11-19T10:00:57;8.23;;;0.77;;
55224;SDS011;41091;49.400;8.684;2023-11-19T10:03:28;0.45;;;0.45;;
55224;SDS011;41091;49.400;8.684;2023-11-19T10:05:58;2.63;;;0.43;;
55224;SDS011;41091;49.400;8.684;2023-11-19T10:08:23;1.73;;;0.70;;
55224;SDS011;41091;49.400;8.684;2023-11-19T10:10:48;1.10;;;0.52;;
55224;SDS011;41091;49.400;8.684;2023-11-19T10:13:14;5.15;;;0.43;;
55224;SDS011;41091;49.400;8.684;2023-11-19T10:15:39;1.83;;;1.00;;
55224;SDS011;41091;49.400;8.684;2023-11-19T10:18:05;1.27;;;0.77;;
55224;SDS011;41091;49.400;8.684;2023-11-19T10:20:36;0.98;;;0.88;;
55224;SDS011;41091;49.400;8.684;2023-11-19T10:23:04;1.33;;;0.55;;
55224;SDS011;41091;49.400;8.684;2023-11-19T10:25:32;1.08;;;0.60;;
55224;SDS011;41091;49.400;8.684;2023-11-19T10:28:01;1.88;;;0.82;;
55224;SDS011;41091;49.400;8.684;2023-11-19T10:30:31;2.33;;;1.10;;
55224;SDS011;41091;49.400;8.684;2023-11-19T10:35:31;3.30;;;0.80;;
55224;SDS011;41091;49.400;8.684;2023-11-19T10:38:00;0.40;;;0.40;;
55224;SDS011;41091;49.400;8.684;2023-11-19T10:40:41;1.70;;;0.43;;
55224;SDS011;41091;49.400;8.684;2023-11-19T10:43:08;1.75;;;0.80;;
55224;SDS011;41091;49.400;8.684;2023-11-19T10:45:34;0.73;;;0.40;;
55224;SDS011;41091;49.400;8.684;2023-11-19T10:48:04;0.40;;;0.40;;
55224;SDS011;41091;49.400;8.684;2023-11-19T10:50:36;5.35;;;0.70;;
55224;SDS011;41091;49.400;8.684;2023-11-19T10:53:02;4.63;;;0.60;;
55224;SDS011;41091;49.400;8.684;2023-11-19T10:55:31;0.40;;;0.40;;
55224;SDS011;41091;49.400;8.684;2023-11-19T10:58:04;1.27;;;0.52;;
55224;SDS011;41091;49.400;8.684;2023-11-19T11:00:37;1.60;;;0.65;;
55224;SDS011;41091;49.400;8.684;2023-11-19T11:03:25;1.23;;;0.60;;
55224;SDS011;41091;49.400;8.684;2023-11-19T11:05:52;12.88;;;0.60;;
55224;SDS011;41091;49.400;8.684;2023-11-19T11:08:18;3.17;;;0.55;;
55224;SDS011;41091;49.400;8.684;2023-11-19T11:10:48;2.58;;;0.68;;
55224;SDS011;41091;49.400;8.684;2023-11-19T11:13:22;1.73;;;0.43;;
55224;SDS011;41091;49.400;8.684;2023-11-19T11:15:55;0.73;;;0.50;;
55224;SDS011;41091;49.400;8.684;2023-11-19T11:18:23;1.35;;;0.40;;
55224;SDS011;41091;49.400;8.684;2023-11-19T11:21:00;3.88;;;0.77;;
55224;SDS011;41091;49.400;8.684;2023-11-19T11:34:12;1.20;;;1.00;;
55224;SDS011;41091;49.400;8.684;2023-11-19T11:39:35;3.72;;;2.22;;
55224;SDS011;41091;49.400;8.684;2023-11-19T11:45:00;1.42;;;1.35;;
55224;SDS011;41091;49.400;8.684;2023-11-19T11:47:25;5.35;;;2.80;;
55224;SDS011;41091;49.400;8.684;2023-11-19T11:49:53;5.47;;;2.58;;
55224;SDS011;41091;49.400;8.684;2023-11-19T11:52:22;10.57;;;6.13;;
55224;SDS011;41091;49.400;8.684;2023-11-19T11:54:51;3.72;;;3.08;;
55224;SDS011;41091;49.400;8.684;2023-11-19T11:57:16;8.00;;;4.47;;
55224;SDS011;41091;49.400;8.684;2023-11-19T11:59:45;1.75;;;1.42;;
55224;SDS011;41091;49.400;8.684;2023-11-19T12:02:14;2.15;;;1.27;;
55224;SDS011;41091;49.400;8.684;2023-11-19T12:07:08;2.05;;;1.27;;
55224;SDS011;41091;49.400;8.684;2023-11-19T12:09:37;6.10;;;1.50;;
55224;SDS011;41091;49.400;8.684;2023-11-19T12:20:06;3.35;;;0.95;;
55224;SDS011;41091;49.400;8.684;2023-11-19T12:22:39;1.17;;;0.60;;
55224;SDS011;41091;49.400;8.684;2023-11-19T12:25:12;0.70;;;0.30;;
55224;SDS011;41091;49.400;8.684;2023-11-19T12:27:45;1.50;;;0.40;;
55224;SDS011;41091;49.400;8.684;2023-11-19T12:30:17;2.05;;;0.45;;
55224;SDS011;41091;49.400;8.684;2023-11-19T12:32:47;5.00;;;0.75;;
55224;SDS011;41091;49.400;8.684;2023-11-19T12:35:17;1.20;;;0.50;;
55224;SDS011;41091;49.400;8.684;2023-11-19T12:37:44;1.23;;;0.40;;
55224;SDS011;41091;49.400;8.684;2023-11-19T12:40:23;0.32;;;0.30;;
55224;SDS011;41091;49.400;8.684;2023-11-19T12:42:49;2.10;;;0.63;;
55224;SDS011;41091;49.400;8.684;2023-11-19T12:45:15;1.85;;;0.60;;
55224;SDS011;41091;49.400;8.684;2023-11-19T12:47:45;1.05;;;0.60;;
55224;SDS011;41091;49.400;8.684;2023-11-19T12:50:17;1.90;;;0.45;;
55224;SDS011;41091;49.400;8.684;2023-11-19T12:52:47;2.67;;;0.70;;
55224;SDS011;41091;49.400;8.684;2023-11-19T12:55:29;1.05;;;0.60;;
55224;SDS011;41091;49.400;8.684;2023-11-19T12:57:55;1.65;;;0.60;;
55224;SDS011;41091;49.400;8.684;2023-11-19T13:00:24;1.35;;;0.77;;
55224;SDS011;41091;49.400;8.684;2023-11-19T13:02:51;0.90;;;0.73;;
55224;SDS011;41091;49.400;8.684;2023-11-19T13:08:06;0.85;;;0.47;;
55224;SDS011;41091;49.400;8.684;2023-11-19T13:10:51;1.02;;;0.45;;
55224;SDS011;41091;49.400;8.684;2023-11-19T13:13:17;0.93;;;0.52;;
55224;SDS011;41091;49.400;8.684;2023-11-19T13:15:44;3.05;;;0.50;;
55224;SDS011;41091;49.400;8.684;2023-11-19T13:18:11;2.28;;;0.55;;
55224;SDS011;41091;49.400;8.684;2023-11-19T13:20:39;1.85;;;0.75;;
55224;SDS011;41091;49.400;8.684;2023-11-19T13:23:07;4.68;;;0.50;;
55224;SDS011;41091;49.400;8.684;2023-11-19T13:25:40;8.55;;;0.85;;
55224;SDS011;41091;49.400;8.684;2023-11-19T13:28:05;8.60;;;0.68;;
55224;SDS011;41091;49.400;8.684;2023-11-19T13:30:31;9.18;;;0.77;;
55224;SDS011;41091;49.400;8.684;2023-11-19T13:32:56;1.02;;;0.63;;
55224;SDS011;41091;49.400;8.684;2023-11-19T13:35:21;5.63;;;0.80;;
55224;SDS011;41091;49.400;8.684;2023-11-19T13:37:47;1.15;;;0.40;;
55224;SDS011;41091;49.400;8.684;2023-11-19T13:40:13;1.73;;;0.80;;
55224;SDS011;41091;49.400;8.684;2023-11-19T13:42:40;1.27;;;0.70;;
55224;SDS011;41091;49.400;8.684;2023-11-19T13:45:09;4.25;;;0.65;;
55224;SDS011;41091;49.400;8.684;2023-11-19T13:47:37;3.50;;;0.80;;
55224;SDS011;41091;49.400;8.684;2023-11-19T13:50:06;5.13;;;0.80;;
55224;SDS011;41091;49.400;8.684;2023-11-19T13:52:35;5.20;;;0.68;;
55224;SDS011;41091;49.400;8.684;2023-11-19T13:55:03;1.67;;;0.80;;
55224;SDS011;41091;49.400;8.684;2023-11-19T13:57:30;5.05;;;0.77;;
55224;SDS011;41091;49.400;8.684;2023-11-19T13:59:56;1.48;;;0.60;;
55224;SDS011;41091;49.400;8.684;2023-11-19T14:02:22;0.90;;;0.45;;
55224;SDS011;41091;49.400;8.684;2023-11-19T14:04:47;3.00;;;0.57;;
55224;SDS011;41091;49.400;8.684;2023-11-19T14:07:12;5.40;;;0.90;;
55224;SDS011;41091;49.400;8.684;2023-11-19T14:09:38;1.55;;;0.80;;
55224;SDS011;41091;49.400;8.684;2023-11-19T14:12:05;4.22;;;0.65;;
55224;SDS011;41091;49.400;8.684;2023-11-19T14:14:33;2.13;;;0.57;;
55224;SDS011;41091;49.400;8.684;2023-11-19T14:16:59;1.98;;;0.85;;
55224;SDS011;41091;49.400;8.684;2023-11-19T14:19:24;1.40;;;0.43;;
55224;SDS011;41091;49.400;8.684;2023-11-19T14:21:52;2.80;;;0.90;;
55224;SDS011;41091;49.400;8.684;2023-11-19T14:24:17;0.57;;;0.30;;
55224;SDS011;41091;49.400;8.684;2023-11-19T14:26:45;1.08;;;0.65;;
55224;SDS011;41091;49.400;8.684;2023-11-19T14:29:12;4.32;;;1.00;;
55224;SDS011;41091;49.400;8.684;2023-11-19T14:31:37;2.05;;;0.40;;
55224;SDS011;41091;49.400;8.684;2023-11-19T14:34:03;3.92;;;1.30;;
55224;SDS011;41091;49.400;8.684;2023-11-19T14:36:28;2.33;;;0.98;;
55224;SDS011;41091;49.400;8.684;2023-11-19T14:38:54;1.60;;;0.52;;
55224;SDS011;41091;49.400;8.684;2023-11-19T14:41:19;1.20;;;0.60;;
55224;SDS011;41091;49.400;8.684;2023-11-19T14:43:44;2.30;;;0.60;;
55224;SDS011;41091;49.400;8.684;2023-11-19T14:46:10;1.67;;;0.73;;
55224;SDS011;41091;49.400;8.684;2023-11-19T14:48:35;7.22;;;0.90;;
55224;SDS011;41091;49.400;8.684;2023-11-19T14:51:00;1.20;;;0.60;;
55224;SDS011;41091;49.400;8.684;2023-11-19T14:53:28;0.60;;;0.40;;
55224;SDS011;41091;49.400;8.684;2023-11-19T14:55:56;2.45;;;1.15;;
55224;SDS011;41091;49.400;8.684;2023-11-19T14:58:22;2.08;;;0.93;;
55224;SDS011;41091;49.400;8.684;2023-11-19T15:00:47;4.68;;;0.60;;
55224;SDS011;41091;49.400;8.684;2023-11-19T15:03:16;0.57;;;0.57;;
55224;SDS011;41091;49.400;8.684;2023-11-19T15:05:46;1.25;;;1.05;;
55224;SDS011;41091;49.400;8.684;2023-11-19T15:08:15;2.85;;;1.00;;
55224;SDS011;41091;49.400;8.684;2023-11-19T15:10:44;3.90;;;1.02;;
55224;SDS011;41091;49.400;8.684;2023-11-19T15:13:11;3.03;;;0.80;;
55224;SDS011;41091;49.400;8.684;2023-11-19T15:15:37;2.08;;;0.60;;
55224;SDS011;41091;49.400;8.684;2023-11-19T15:18:04;4.68;;;1.35;;
55224;SDS011;41091;49.400;8.684;2023-11-19T15:20:32;5.25;;;1.48;;
55224;SDS011;41091;49.400;8.684;2023-11-19T15:22:57;3.75;;;0.93;;